Time;durP1;ratioP1;P1;durP2;ratioP2;P2;SDS_P1;SDS_P2;PMS_P1;PMS_P2;Temp;Humidity;BMP_temperature;BMP_pressure;BME280_temperature;BME280_humidity;BME280_pressure;Samples;Min_cycle;Max_cycle;Signal;HPM_P1;HPM_P2
2022/04/16 00:00:11;;;;;;;7.20;4.50;;;10.80;99.90;;;;;;5076614;28;20020;-60
2022/04/16 00:02:38;;;;;;;7.13;3.67;;;10.80;99.90;;;;;;5076040;28;20196;-60
2022/04/16 00:05:04;;;;;;;5.47;3.35;;;10.80;99.90;;;;;;5092905;28;20062;-60
2022/04/16 00:07:30;;;;;;;4.45;3.35;;;10.90;99.90;;;;;;5093346;28;20398;-59
2022/04/16 00:09:55;;;;;;;4.72;2.90;;;11.00;99.90;;;;;;5093815;28;20020;-60
2022/04/16 00:12:21;;;;;;;5.45;3.30;;;11.00;99.90;;;;;;5092413;28;20031;-59
2022/04/16 00:14:47;;;;;;;6.32;3.58;;;11.00;99.90;;;;;;5092383;28;20024;-60
2022/04/16 00:17:13;;;;;;;7.78;4.40;;;11.00;99.90;;;;;;5094296;28;20106;-59
2022/04/16 00:19:41;;;;;;;5.93;3.78;;;11.10;99.90;;;;;;5093854;28;20022;-53
2022/04/16 00:22:10;;;;;;;5.57;3.55;;;11.10;99.90;;;;;;5075581;28;20020;-58
2022/04/16 00:24:36;;;;;;;9.00;5.10;;;11.10;99.90;;;;;;5075514;28;20024;-54
2022/04/16 00:27:02;;;;;;;7.07;4.18;;;11.10;99.90;;;;;;5075619;28;20447;-57
2022/04/16 00:29:27;;;;;;;10.82;5.72;;;11.10;99.90;;;;;;5076331;28;20059;-52
2022/04/16 00:31:53;;;;;;;8.88;4.88;;;11.10;99.90;;;;;;5075761;28;20043;-55
2022/04/16 00:34:19;;;;;;;8.18;5.05;;;11.10;99.90;;;;;;5091292;28;20083;-58
2022/04/16 00:36:46;;;;;;;8.27;5.18;;;11.20;99.90;;;;;;5114158;28;20020;-56
2022/04/16 00:39:12;;;;;;;8.60;4.85;;;11.10;99.90;;;;;;5113993;28;20103;-58
2022/04/16 00:41:39;;;;;;;10.57;6.45;;;11.20;99.90;;;;;;5095631;28;20062;-57
2022/04/16 00:44:05;;;;;;;11.40;5.72;;;11.20;99.90;;;;;;5096730;28;20023;-54
2022/04/16 00:46:31;;;;;;;13.23;7.15;;;11.20;99.90;;;;;;5113952;28;20023;-57
2022/04/16 00:48:57;;;;;;;15.85;7.63;;;11.20;99.90;;;;;;5113739;28;20030;-55
2022/04/16 00:51:23;;;;;;;13.18;7.60;;;11.10;99.90;;;;;;5113471;28;20030;-52
2022/04/16 00:53:49;;;;;;;12.52;6.97;;;11.10;99.90;;;;;;5113672;28;20030;-57
2022/04/16 00:56:15;;;;;;;16.10;7.65;;;11.20;99.90;;;;;;5095301;28;20027;-52
2022/04/16 00:58:41;;;;;;;14.38;7.38;;;11.10;99.90;;;;;;5095143;28;20024;-56
2022/04/16 01:01:08;;;;;;;17.27;8.73;;;11.10;99.90;;;;;;5114289;28;20047;-57
2022/04/16 01:03:34;;;;;;;19.65;8.32;;;11.20;99.90;;;;;;5113818;28;20024;-54
2022/04/16 01:05:59;;;;;;;14.07;8.23;;;11.10;99.90;;;;;;5095804;28;20030;-57
2022/04/16 01:08:25;;;;;;;15.95;8.73;;;11.10;99.90;;;;;;5095931;28;20111;-52
2022/04/16 01:10:51;;;;;;;19.63;9.38;;;11.00;99.90;;;;;;5113376;28;20083;-55
2022/04/16 01:13:18;;;;;;;18.33;9.25;;;10.90;99.90;;;;;;5095210;28;20023;-53
2022/04/16 01:15:44;;;;;;;15.45;8.80;;;10.80;99.90;;;;;;5095537;28;20028;-56
2022/04/16 01:18:12;;;;;;;13.93;8.18;;;10.80;99.90;;;;;;5095950;28;20028;-56
2022/04/16 01:20:39;;;;;;;18.25;9.57;;;10.80;99.90;;;;;;5095294;28;20496;-57
2022/04/16 01:23:15;;;;;;;19.63;10.00;;;10.70;99.90;;;;;;5097069;28;20028;-51
2022/04/16 01:25:42;;;;;;;19.75;10.25;;;10.70;99.90;;;;;;5117703;28;20023;-50
2022/04/16 01:28:09;;;;;;;19.45;9.73;;;10.70;99.90;;;;;;5099436;28;20028;-54
2022/04/16 01:30:35;;;;;;;19.52;9.80;;;10.80;99.90;;;;;;5117662;28;20024;-56
2022/04/16 01:33:03;;;;;;;18.67;10.40;;;10.80;99.90;;;;;;5090543;28;20047;-55
2022/04/16 01:35:29;;;;;;;19.92;10.38;;;10.70;99.90;;;;;;5097029;28;20028;-54
2022/04/16 01:37:55;;;;;;;18.55;9.98;;;10.70;99.90;;;;;;5078769;28;20047;-53
2022/04/16 01:40:20;;;;;;;23.27;10.07;;;10.70;99.90;;;;;;5109352;28;20020;-51
2022/04/16 01:42:46;;;;;;;17.65;9.35;;;10.70;99.90;;;;;;5099294;28;20500;-53
2022/04/16 01:45:17;;;;;;;20.70;10.80;;;10.80;99.90;;;;;;5117424;28;20026;-53
2022/04/16 01:47:43;;;;;;;17.15;10.15;;;10.80;99.90;;;;;;5117514;28;20020;-54
2022/04/16 01:50:10;;;;;;;19.08;9.73;;;10.90;99.90;;;;;;5098959;28;20032;-57
2022/04/16 01:52:37;;;;;;;20.15;9.68;;;10.90;99.90;;;;;;5099251;28;20034;-55
2022/04/16 01:55:04;;;;;;;21.70;10.70;;;10.90;99.90;;;;;;5116930;28;20024;-56
2022/04/16 01:57:30;;;;;;;18.92;10.02;;;11.00;99.90;;;;;;5117245;28;20027;-53
2022/04/16 01:59:56;;;;;;;18.55;9.80;;;10.90;99.90;;;;;;5098660;28;20024;-52
2022/04/16 02:02:22;;;;;;;19.08;10.55;;;10.90;99.90;;;;;;5098908;28;20051;-54
2022/04/16 02:04:47;;;;;;;18.65;10.15;;;10.80;99.90;;;;;;5116890;28;20066;-55
2022/04/16 02:07:13;;;;;;;20.73;9.70;;;10.80;99.90;;;;;;5116850;28;20377;-57
2022/04/16 02:09:40;;;;;;;23.38;10.77;;;10.80;99.90;;;;;;5114623;28;20027;-56
2022/04/16 02:12:06;;;;;;;17.67;9.95;;;10.90;99.90;;;;;;5098739;28;20024;-55
2022/04/16 02:14:32;;;;;;;17.90;10.57;;;10.90;99.90;;;;;;5099097;28;20020;-57
2022/04/16 02:16:59;;;;;;;20.80;10.40;;;10.80;99.90;;;;;;5098874;28;20032;-54
2022/04/16 02:19:25;;;;;;;19.38;9.88;;;10.80;99.90;;;;;;5099398;28;20019;-57
2022/04/16 02:21:51;;;;;;;23.42;10.77;;;10.80;99.90;;;;;;5098422;28;20024;-57
2022/04/16 02:24:17;;;;;;;18.63;10.43;;;10.80;99.90;;;;;;5116709;28;20119;-55
2022/04/16 02:26:46;;;;;;;21.05;10.55;;;10.70;99.90;;;;;;5116640;28;20084;-57
2022/04/16 02:29:15;;;;;;;19.30;9.45;;;10.70;99.90;;;;;;5116665;28;20057;-53
2022/04/16 02:31:41;;;;;;;18.38;8.93;;;10.70;99.90;;;;;;5098189;28;20063;-57
2022/04/16 02:34:08;;;;;;;21.33;10.23;;;10.70;99.90;;;;;;5097828;28;20024;-53
2022/04/16 02:36:34;;;;;;;21.35;9.98;;;10.70;99.90;;;;;;5098801;28;20028;-54
2022/04/16 02:39:00;;;;;;;21.10;11.50;;;10.70;99.90;;;;;;5116554;28;20119;-54
2022/04/16 02:41:26;;;;;;;22.85;11.65;;;10.60;99.90;;;;;;5116367;28;20085;-55
2022/04/16 02:43:54;;;;;;;23.80;11.25;;;10.60;99.90;;;;;;5097920;28;20020;-57
2022/04/16 02:49:19;;;;;;;22.83;11.18;;;10.60;99.90;;;;;;5116578;28;20031;-56
2022/04/16 02:51:45;;;;;;;22.58;11.10;;;10.70;99.90;;;;;;5115816;28;20020;-54
2022/04/16 02:54:11;;;;;;;21.33;9.95;;;10.70;99.90;;;;;;5115754;28;20023;-55
2022/04/16 02:56:36;;;;;;;20.33;10.18;;;10.80;99.90;;;;;;5097612;28;20026;-51
2022/04/16 02:59:02;;;;;;;23.73;11.10;;;10.80;99.90;;;;;;5097645;28;20058;-55
2022/04/16 03:01:27;;;;;;;20.90;11.88;;;10.80;99.90;;;;;;5115983;28;20104;-54
2022/04/16 03:03:53;;;;;;;22.08;10.60;;;10.80;99.90;;;;;;5097389;28;20027;-54
2022/04/16 03:06:19;;;;;;;22.35;11.18;;;10.80;99.90;;;;;;5097505;28;20027;-54
2022/04/16 03:08:44;;;;;;;25.25;11.48;;;10.80;99.90;;;;;;5097558;28;20028;-57
2022/04/16 03:11:10;;;;;;;23.15;10.80;;;10.90;99.90;;;;;;5097597;28;20023;-55
2022/04/16 03:13:36;;;;;;;17.85;10.43;;;10.90;99.90;;;;;;5097163;28;20023;-56
2022/04/16 03:18:46;;;;;;;22.13;12.40;;;11.00;99.90;;;;;;5115955;28;20085;-55
2022/04/16 03:21:12;;;;;;;19.40;9.95;;;11.00;99.90;;;;;;5116022;28;20027;-55
2022/04/16 03:23:39;;;;;;;24.58;11.95;;;10.80;99.90;;;;;;5097370;28;20023;-55
2022/04/16 03:26:04;;;;;;;23.25;11.82;;;10.70;99.90;;;;;;5115643;28;20077;-56
2022/04/16 03:28:31;;;;;;;29.92;13.43;;;10.60;99.90;;;;;;5097489;28;20020;-56
2022/04/16 03:30:58;;;;;;;27.02;12.15;;;10.60;99.90;;;;;;5097256;28;20028;-58
2022/04/16 03:33:23;;;;;;;30.98;12.32;;;10.50;99.90;;;;;;5096883;28;20023;-58
2022/04/16 03:35:51;;;;;;;25.15;11.98;;;10.60;99.90;;;;;;5115151;28;20042;-53
2022/04/16 03:38:17;;;;;;;26.95;12.63;;;10.50;99.90;;;;;;5115300;28;20026;-57
2022/04/16 03:40:43;;;;;;;27.48;12.07;;;10.50;99.90;;;;;;5097190;28;20110;-57
2022/04/16 03:43:08;;;;;;;26.50;12.57;;;10.50;99.90;;;;;;5097021;28;20110;-53
2022/04/16 03:45:36;;;;;;;23.08;11.32;;;10.50;99.90;;;;;;5096101;28;20077;-56
2022/04/16 03:48:04;;;;;;;27.60;12.57;;;10.50;99.90;;;;;;5115024;28;20020;-56
2022/04/16 03:50:30;;;;;;;26.55;13.02;;;10.50;99.90;;;;;;5114887;28;20031;-56
2022/04/16 03:52:56;;;;;;;25.70;12.70;;;10.60;99.90;;;;;;5115017;28;20028;-56
2022/04/16 04:00:58;;;;;;;24.00;11.68;;;10.50;99.90;;;;;;5115372;28;20035;-57
2022/04/16 04:03:24;;;;;;;28.65;13.10;;;10.50;99.90;;;;;;5114677;28;20020;-57
2022/04/16 04:05:53;;;;;;;26.55;12.63;;;10.50;99.90;;;;;;5114811;28;20024;-58
2022/04/16 04:08:20;;;;;;;28.25;13.00;;;10.50;99.90;;;;;;5097582;28;20028;-57
2022/04/16 04:10:46;;;;;;;29.52;13.73;;;10.50;99.90;;;;;;5096648;28;20031;-58
2022/04/16 04:13:13;;;;;;;23.55;12.77;;;10.50;99.90;;;;;;5096392;28;20039;-58
2022/04/16 04:15:42;;;;;;;22.13;11.48;;;10.50;99.90;;;;;;5096150;28;20034;-56
2022/04/16 04:18:08;;;;;;;19.42;9.15;;;10.40;99.90;;;;;;5095785;28;20027;-56
2022/04/16 04:20:37;;;;;;;18.67;9.23;;;10.40;99.90;;;;;;5096007;28;20056;-53
2022/04/16 04:23:03;;;;;;;16.90;8.35;;;10.30;99.90;;;;;;5096030;28;20031;-56
2022/04/16 04:25:29;;;;;;;9.68;6.22;;;10.30;99.90;;;;;;5114257;28;20028;-59
2022/04/16 04:27:55;;;;;;;9.90;5.60;;;10.00;99.90;;;;;;5095846;28;20023;-56
2022/04/16 04:30:21;;;;;;;11.73;5.88;;;9.90;99.90;;;;;;5095799;28;20020;-56
2022/04/16 04:32:47;;;;;;;11.50;6.03;;;10.00;99.90;;;;;;5114361;28;20111;-55
2022/04/16 04:35:13;;;;;;;13.05;6.57;;;9.90;99.90;;;;;;5114618;28;20030;-58
2022/04/16 04:37:38;;;;;;;8.23;5.00;;;9.90;99.90;;;;;;5114491;28;20524;-54
2022/04/16 04:40:05;;;;;;;8.25;4.95;;;9.90;99.90;;;;;;5114366;28;20022;-56
2022/04/16 04:42:34;;;;;;;9.73;5.47;;;9.90;99.90;;;;;;5096673;28;20016;-58
2022/04/16 04:45:10;;;;;;;10.52;5.60;;;9.90;99.90;;;;;;5114446;28;20012;-56
2022/04/16 04:47:36;;;;;;;8.00;5.43;;;10.00;99.90;;;;;;5114417;28;20023;-57
2022/04/16 04:50:02;;;;;;;8.65;5.50;;;10.00;99.90;;;;;;5114148;28;20016;-58
2022/04/16 04:52:29;;;;;;;7.25;4.28;;;10.00;99.90;;;;;;5096384;28;20028;-53
2022/04/16 04:54:56;;;;;;;8.85;5.03;;;10.00;99.90;;;;;;5113896;28;20016;-54
2022/04/16 04:57:21;;;;;;;8.93;4.88;;;9.90;99.90;;;;;;5095586;28;20023;-56
2022/04/16 04:59:47;;;;;;;9.98;5.18;;;9.90;99.90;;;;;;5114193;28;20027;-56
2022/04/16 05:02:13;;;;;;;8.85;5.07;;;9.80;99.90;;;;;;5114478;28;20023;-55
2022/04/16 05:04:38;;;;;;;8.75;4.72;;;9.80;99.90;;;;;;5096324;28;20112;-58
2022/04/16 05:07:05;;;;;;;10.98;5.35;;;9.80;99.90;;;;;;5130293;22;20045;-61
2022/04/16 05:09:31;;;;;;;10.15;5.95;;;9.90;99.90;;;;;;5054782;28;20025;-62
2022/04/16 05:11:57;;;;;;;8.52;4.95;;;9.90;99.90;;;;;;5055407;28;20115;-61
2022/04/16 05:14:23;;;;;;;9.40;4.60;;;9.90;99.90;;;;;;5073742;28;20052;-59
2022/04/16 05:16:49;;;;;;;9.93;5.88;;;9.90;99.90;;;;;;5055696;28;20036;-61
2022/04/16 05:19:14;;;;;;;8.88;4.88;;;9.90;99.90;;;;;;5073242;28;20032;-62
2022/04/16 05:21:40;;;;;;;8.95;5.82;;;9.90;99.90;;;;;;5055947;28;20024;-61
2022/04/16 05:24:06;;;;;;;8.95;5.25;;;9.90;99.90;;;;;;5055684;28;20025;-61
2022/04/16 05:26:33;;;;;;;7.38;5.15;;;9.80;99.90;;;;;;5056272;28;20024;-61
2022/04/16 05:28:58;;;;;;;8.85;5.10;;;9.80;99.90;;;;;;5054522;28;20056;-56
2022/04/16 05:31:26;;;;;;;8.60;5.10;;;9.80;99.90;;;;;;5055638;28;20052;-60
2022/04/16 05:36:37;;;;;;;8.23;5.30;;;9.90;99.90;;;;;;5073173;28;20074;-61
2022/04/16 05:39:03;;;;;;;9.27;5.60;;;9.90;99.90;;;;;;5055011;28;20025;-61
2022/04/16 05:41:28;;;;;;;8.02;5.25;;;9.90;99.90;;;;;;5055601;28;20112;-62
2022/04/16 05:43:54;;;;;;;9.18;5.47;;;9.90;99.90;;;;;;5055141;28;20029;-62
2022/04/16 05:46:19;;;;;;;9.23;6.05;;;9.90;99.90;;;;;;5055407;28;20078;-62
2022/04/16 05:48:45;;;;;;;10.02;5.60;;;9.90;99.90;;;;;;5055159;28;20066;-62
2022/04/16 05:51:11;;;;;;;13.20;6.60;;;9.80;99.90;;;;;;5055286;28;20024;-62
2022/04/16 05:53:39;;;;;;;14.48;6.07;;;9.90;99.90;;;;;;5072705;28;20047;-62
2022/04/16 05:56:04;;;;;;;12.98;6.22;;;9.90;99.90;;;;;;5072671;28;20037;-56
2022/04/16 05:58:31;;;;;;;10.70;7.07;;;9.80;99.90;;;;;;5072658;28;20043;-61
2022/04/16 06:00:56;;;;;;;13.43;6.65;;;9.80;99.90;;;;;;5072938;28;20020;-62
2022/04/16 06:03:22;;;;;;;12.70;7.38;;;9.70;99.90;;;;;;5055609;28;20115;-61
2022/04/16 06:05:49;;;;;;;13.65;7.50;;;9.70;99.90;;;;;;5054830;28;20028;-61
2022/04/16 06:08:14;;;;;;;16.02;7.60;;;9.60;99.90;;;;;;5055142;28;20044;-62
2022/04/16 06:10:40;;;;;;;15.90;7.55;;;9.60;99.90;;;;;;5076886;28;20024;-62
2022/04/16 06:13:06;;;;;;;12.48;6.93;;;9.70;99.90;;;;;;5058907;28;20025;-62
2022/04/16 06:15:32;;;;;;;14.20;7.40;;;9.60;99.90;;;;;;5058690;28;20024;-63
2022/04/16 06:17:58;;;;;;;14.45;7.30;;;9.60;99.90;;;;;;5076377;28;20041;-61
2022/04/16 06:20:24;;;;;;;13.73;7.22;;;9.50;99.90;;;;;;5058328;28;20055;-60
2022/04/16 06:22:49;;;;;;;11.93;6.43;;;9.60;99.90;;;;;;5058560;28;20016;-61
2022/04/16 06:25:15;;;;;;;14.95;6.97;;;9.50;99.90;;;;;;5058329;28;20149;-61
2022/04/16 06:27:41;;;;;;;13.32;6.95;;;9.60;99.90;;;;;;5058230;28;20079;-62
2022/04/16 06:30:08;;;;;;;16.15;7.18;;;9.60;99.90;;;;;;5076106;28;20082;-61
2022/04/16 06:32:35;;;;;;;17.17;7.20;;;9.60;99.90;;;;;;5058043;28;20079;-61
2022/04/16 06:35:05;;;;;;;12.75;6.88;;;9.50;99.90;;;;;;5058236;28;20027;-62
2022/04/16 06:37:34;;;;;;;13.95;6.43;;;9.50;99.90;;;;;;5057935;28;20056;-61
2022/04/16 06:40:00;;;;;;;12.38;6.18;;;9.60;99.90;;;;;;5075995;28;20025;-62
2022/04/16 06:42:27;;;;;;;13.00;6.70;;;9.60;99.90;;;;;;5081524;28;20032;-62
2022/04/16 06:44:52;;;;;;;10.40;5.97;;;9.70;99.90;;;;;;5048549;28;20021;-62
2022/04/16 06:47:18;;;;;;;15.70;6.25;;;9.90;99.90;;;;;;5037992;28;20398;-62
2022/04/16 06:49:44;;;;;;;15.73;6.72;;;10.10;99.90;;;;;;5045206;28;20048;-62
2022/04/16 06:52:09;;;;;;;12.02;6.10;;;10.40;99.90;;;;;;5055459;28;20012;-62
2022/04/16 06:54:52;;;;;;;10.27;5.88;;;10.70;99.90;;;;;;5037645;28;20082;-62
2022/04/16 06:57:18;;;;;;;11.48;5.95;;;10.90;99.90;;;;;;5037634;28;20025;-61
2022/04/16 06:59:44;;;;;;;11.32;5.75;;;11.10;99.90;;;;;;5056959;28;20024;-62
2022/04/16 07:02:10;;;;;;;12.40;5.82;;;11.30;99.90;;;;;;5051129;28;20419;-62
2022/04/16 07:04:37;;;;;;;8.55;4.75;;;11.70;99.90;;;;;;5037775;28;20045;-62
2022/04/16 07:07:03;;;;;;;10.23;4.80;;;12.70;99.90;;;;;;5054287;28;20032;-60
2022/04/16 07:09:29;;;;;;;8.85;5.10;;;12.90;99.90;;;;;;5039719;28;20036;-62
2022/04/16 07:11:55;;;;;;;10.68;5.53;;;13.10;99.90;;;;;;5048399;28;20036;-62
2022/04/16 07:14:21;;;;;;;6.13;4.00;;;13.20;99.90;;;;;;5057528;28;20493;-62
2022/04/16 07:16:55;;;;;;;7.90;4.32;;;12.80;99.90;;;;;;5044822;28;20028;-62
2022/04/16 07:19:21;;;;;;;10.13;4.90;;;12.20;99.90;;;;;;5037374;28;20017;-61
2022/04/16 07:21:46;;;;;;;8.20;4.45;;;11.70;99.90;;;;;;5037279;28;20132;-62
2022/04/16 07:24:12;;;;;;;8.77;4.07;;;11.60;99.90;;;;;;5049923;28;20031;-62
2022/04/16 07:26:37;;;;;;;10.10;4.60;;;12.20;99.90;;;;;;5057284;28;20028;-62
2022/04/16 07:29:03;;;;;;;9.15;4.88;;;13.00;99.90;;;;;;5056773;28;20025;-61
2022/04/16 07:31:29;;;;;;;8.40;4.18;;;12.90;99.90;;;;;;5056560;28;20037;-62
2022/04/16 07:33:54;;;;;;;8.68;3.80;;;12.30;99.90;;;;;;5055064;28;20029;-60
2022/04/16 07:36:20;;;;;;;7.45;3.40;;;11.90;99.90;;;;;;5054657;28;20056;-62
2022/04/16 07:38:47;;;;;;;4.72;3.38;;;11.80;99.90;;;;;;5036935;28;20479;-60
2022/04/16 07:41:12;;;;;;;5.43;3.30;;;13.20;99.90;;;;;;5037513;28;20021;-59
2022/04/16 07:43:38;;;;;;;5.03;3.17;;;14.80;99.90;;;;;;5054690;28;20387;-57
2022/04/16 07:46:03;;;;;;;6.35;3.55;;;15.60;99.90;;;;;;5037116;28;20060;-59
2022/04/16 07:48:29;;;;;;;5.80;3.33;;;15.70;99.90;;;;;;5036472;28;20033;-61
2022/04/16 07:50:55;;;;;;;4.28;3.17;;;15.40;99.90;;;;;;5036720;28;20024;-61
2022/04/16 07:53:21;;;;;;;5.05;3.22;;;16.00;99.90;;;;;;5036901;28;20075;-61
2022/04/16 07:55:54;;;;;;;6.90;3.50;;;16.50;99.90;;;;;;5054636;28;20029;-61
2022/04/16 07:58:20;;;;;;;8.57;3.58;;;16.10;99.90;;;;;;5036887;28;20025;-61
2022/04/16 08:00:45;;;;;;;7.93;3.65;;;14.70;99.90;;;;;;5054796;28;20103;-56
2022/04/16 08:03:11;;;;;;;8.23;3.65;;;13.60;99.90;;;;;;5036565;28;20025;-59
2022/04/16 08:05:37;;;;;;;6.93;3.90;;;12.80;99.90;;;;;;5054504;28;20537;-57
2022/04/16 08:08:04;;;;;;;6.78;3.40;;;12.30;99.90;;;;;;5036165;28;20047;-58
2022/04/16 08:10:30;;;;;;;5.97;3.30;;;11.90;99.90;;;;;;5036392;28;20025;-57
2022/04/16 08:12:56;;;;;;;7.03;3.17;;;11.70;99.90;;;;;;5036212;28;20029;-57
2022/04/16 08:15:21;;;;;;;6.38;3.40;;;11.80;99.90;;;;;;5036293;28;20119;-60
2022/04/16 08:17:47;;;;;;;5.20;2.97;;;12.50;99.90;;;;;;5054146;28;20112;-56
2022/04/16 08:20:14;;;;;;;5.50;3.35;;;14.00;99.90;;;;;;5036739;28;20053;-59
2022/04/16 08:22:46;;;;;;;6.43;3.05;;;16.00;99.90;;;;;;5036483;28;20022;-50
2022/04/16 08:27:47;;;;;;;4.88;3.53;;;17.40;99.90;;;;;;5054163;28;20049;-60
2022/04/16 08:30:14;;;;;;;5.90;3.47;;;18.10;99.30;;;;;;5059875;28;20033;-54
2022/04/16 08:32:44;;;;;;;9.80;3.40;;;18.70;97.50;;;;;;5055695;28;20067;-52
2022/04/16 08:35:13;;;;;;;6.63;3.45;;;18.60;94.80;;;;;;5073657;28;20060;-56
2022/04/16 08:37:40;;;;;;;4.85;3.20;;;18.50;95.00;;;;;;5037325;28;20021;-54
2022/04/16 08:40:07;;;;;;;6.72;3.75;;;18.60;94.40;;;;;;5036120;28;20471;-56
2022/04/16 08:42:37;;;;;;;5.70;3.67;;;18.70;93.20;;;;;;5036545;28;20032;-52
2022/04/16 08:45:09;;;;;;;6.57;3.10;;;18.90;92.40;;;;;;5035359;28;20029;-51
2022/04/16 08:50:51;;;;;;;4.57;3.28;;;20.20;90.50;;;;;;5051664;28;20075;-55
2022/04/16 08:53:19;;;;;;;4.60;2.88;;;20.50;88.00;;;;;;5035700;28;20071;-51
2022/04/16 08:55:50;;;;;;;5.68;3.60;;;19.50;86.40;;;;;;5053434;28;20032;-53
2022/04/16 08:58:16;;;;;;;7.32;3.42;;;19.60;87.90;;;;;;5053745;28;20044;-55
2022/04/16 09:00:47;;;;;;;5.78;3.70;;;19.80;86.60;;;;;;5035734;28;20025;-56
2022/04/16 09:03:58;;;;;;;5.53;3.67;;;19.90;85.50;;;;;;5035760;28;20017;-53
2022/04/16 09:06:27;;;;;;;7.00;4.07;;;20.60;85.70;;;;;;5029821;28;20075;-54
2022/04/16 09:09:13;;;;;;;8.00;4.22;;;20.10;83.60;;;;;;5053046;28;20033;-58
2022/04/16 09:11:46;;;;;;;7.97;4.07;;;19.70;84.80;;;;;;5034956;28;20063;-55
2022/04/16 09:14:30;;;;;;;6.72;4.10;;;19.20;85.30;;;;;;5053374;28;20021;-54
2022/04/16 09:17:11;;;;;;;6.50;3.97;;;18.30;86.20;;;;;;5053485;28;20029;-56
2022/04/16 09:19:39;;;;;;;6.80;3.55;;;18.70;85.80;;;;;;5036667;28;20017;-58
2022/04/16 09:22:07;;;;;;;4.70;3.03;;;19.40;84.50;;;;;;5053308;28;20111;-58
2022/04/16 09:24:48;;;;;;;6.35;3.90;;;20.30;81.70;;;;;;5036076;28;20074;-58
2022/04/16 09:27:15;;;;;;;4.78;2.95;;;20.60;77.50;;;;;;5047965;28;20028;-56
2022/04/16 09:29:40;;;;;;;6.20;3.55;;;19.80;78.10;;;;;;5070382;28;20040;-58
2022/04/16 09:32:07;;;;;;;4.50;2.65;;;20.20;76.10;;;;;;5055667;28;20029;-53
2022/04/16 09:34:33;;;;;;;3.33;2.85;;;20.50;75.40;;;;;;5073509;28;20035;-55
2022/04/16 09:37:11;;;;;;;7.35;2.40;;;20.80;74.20;;;;;;5073221;28;20028;-59
2022/04/16 09:39:37;;;;;;;7.05;3.15;;;20.90;71.00;;;;;;5055357;28;20074;-52
2022/04/16 09:42:03;;;;;;;3.60;2.78;;;20.20;71.20;;;;;;5073266;28;20025;-57
2022/04/16 09:44:29;;;;;;;4.15;2.88;;;20.20;71.50;;;;;;5057537;28;20114;-58
2022/04/16 09:46:55;;;;;;;3.55;2.67;;;20.80;71.50;;;;;;5077106;28;20039;-58
2022/04/16 09:49:22;;;;;;;4.40;2.80;;;21.20;67.50;;;;;;5059234;28;20036;-56
2022/04/16 09:51:48;;;;;;;2.65;1.95;;;21.10;67.20;;;;;;5059528;28;20025;-53
2022/04/16 09:54:15;;;;;;;4.07;2.30;;;21.00;64.90;;;;;;5058700;28;20096;-56
2022/04/16 09:56:44;;;;;;;2.75;2.20;;;19.70;64.50;;;;;;5058842;28;20021;-57
2022/04/16 09:59:12;;;;;;;3.78;1.60;;;19.40;64.60;;;;;;5076765;28;20138;-54
2022/04/16 10:01:39;;;;;;;1.50;1.10;;;19.60;62.60;;;;;;5058837;28;20021;-57
2022/04/16 10:04:07;;;;;;;3.08;1.85;;;20.10;60.40;;;;;;5058617;28;20024;-55
2022/04/16 10:06:33;;;;;;;3.88;1.48;;;19.70;60.30;;;;;;5058995;28;20463;-53
2022/04/16 10:09:13;;;;;;;2.63;1.13;;;19.40;59.40;;;;;;5076905;28;20064;-54
2022/04/16 10:14:48;;;;;;;2.70;1.00;;;18.40;55.60;;;;;;5077167;28;20110;-56
2022/04/16 10:17:14;;;;;;;3.03;1.08;;;18.20;56.40;;;;;;5047838;28;20562;-58
2022/04/16 10:19:45;;;;;;;2.63;0.80;;;17.40;58.40;;;;;;5076636;28;20055;-57
2022/04/16 10:22:23;;;;;;;1.10;0.70;;;16.70;60.00;;;;;;5076945;28;20054;-57
2022/04/16 10:24:49;;;;;;;1.00;0.60;;;16.60;61.00;;;;;;5059138;28;20067;-59
2022/04/16 10:27:27;;;;;;;2.53;0.70;;;16.60;59.00;;;;;;5058386;28;20017;-58
2022/04/16 10:29:54;;;;;;;1.75;0.57;;;16.10;61.70;;;;;;5058354;28;20021;-59
2022/04/16 10:32:20;;;;;;;1.23;0.52;;;16.10;54.50;;;;;;5058675;28;20112;-63
2022/04/16 10:34:46;;;;;;;2.38;0.75;;;15.70;55.20;;;;;;5076264;28;20096;-64
2022/04/16 10:37:24;;;;;;;1.65;0.70;;;15.30;55.80;;;;;;5058440;28;20028;-65
2022/04/16 10:39:53;;;;;;;0.70;0.50;;;14.80;55.30;;;;;;5057939;28;20020;-64
2022/04/16 10:42:31;;;;;;;3.63;0.77;;;14.30;55.90;;;;;;5057950;28;20020;-66
2022/04/16 10:45:08;;;;;;;0.32;0.32;;;13.90;57.10;;;;;;5057933;28;20081;-66
2022/04/16 10:47:37;;;;;;;2.05;0.90;;;13.60;55.90;;;;;;5057832;28;20020;-64
2022/04/16 10:50:19;;;;;;;1.55;0.60;;;13.80;58.70;;;;;;5057758;28;20031;-64
2022/04/16 10:52:56;;;;;;;0.30;0.30;;;13.80;57.80;;;;;;5075988;28;20024;-64
2022/04/16 10:55:36;;;;;;;0.30;0.20;;;13.80;57.40;;;;;;5075356;28;20024;-64
2022/04/16 10:58:06;;;;;;;0.55;0.35;;;13.90;57.90;;;;;;5075855;28;20021;-64
2022/04/16 11:00:40;;;;;;;1.53;0.50;;;13.70;58.60;;;;;;5057585;28;20048;-65
2022/04/16 11:03:30;;;;;;;2.47;1.27;;;13.50;59.30;;;;;;5075555;28;20038;-64
2022/04/16 11:06:09;;;;;;;1.35;0.60;;;13.50;58.90;;;;;;5049004;28;20040;-65
2022/04/16 11:08:37;;;;;;;1.10;0.45;;;13.50;56.70;;;;;;5075240;28;20045;-65
2022/04/16 11:11:03;;;;;;;0.88;0.60;;;13.60;57.30;;;;;;5075411;28;20068;-65
2022/04/16 11:13:35;;;;;;;1.27;0.47;;;13.60;58.30;;;;;;5075369;28;20024;-65
2022/04/16 11:16:01;;;;;;;1.13;0.93;;;13.60;57.50;;;;;;5057260;28;20028;-65
2022/04/16 11:18:44;;;;;;;1.50;0.90;;;13.40;55.40;;;;;;5075033;28;20017;-64
2022/04/16 11:21:25;;;;;;;2.50;0.65;;;13.20;57.60;;;;;;5057465;28;20450;-65
2022/04/16 11:23:52;;;;;;;0.70;0.53;;;13.00;57.50;;;;;;5057786;28;20073;-65
2022/04/16 11:34:34;;;;;;;2.17;0.30;;;13.00;56.70;;;;;;5075514;28;20074;-65
2022/04/16 11:37:00;;;;;;;1.15;0.30;;;13.00;54.60;;;;;;5056791;28;20451;-65
2022/04/16 11:39:28;;;;;;;0.50;0.50;;;12.90;55.90;;;;;;5057151;28;20024;-65
2022/04/16 11:42:02;;;;;;;1.50;0.55;;;13.10;58.20;;;;;;5075015;28;20032;-65
2022/04/16 11:44:38;;;;;;;1.33;0.70;;;13.20;58.20;;;;;;5074638;28;20029;-65
2022/04/16 11:47:13;;;;;;;1.63;0.68;;;13.20;60.50;;;;;;5056586;28;20482;-65
2022/04/16 11:49:48;;;;;;;1.23;0.30;;;13.30;58.80;;;;;;5056864;28;20047;-64
2022/04/16 11:52:15;;;;;;;1.55;0.50;;;13.30;54.80;;;;;;5074998;28;20021;-64
2022/04/16 11:54:40;;;;;;;1.45;0.30;;;13.20;55.70;;;;;;5056562;28;20021;-64
2022/04/16 11:57:07;;;;;;;0.73;0.50;;;13.00;56.70;;;;;;5074550;28;20031;-65
2022/04/16 11:59:34;;;;;;;1.77;0.50;;;13.00;55.70;;;;;;5056815;28;20021;-65
2022/04/16 12:02:08;;;;;;;0.63;0.43;;;13.10;55.50;;;;;;5056355;28;20055;-64
2022/04/16 12:04:39;;;;;;;0.55;0.43;;;13.00;55.70;;;;;;5056718;28;20052;-64
2022/04/16 12:07:21;;;;;;;0.50;0.40;;;13.00;55.80;;;;;;5055247;28;20025;-65
2022/04/16 12:09:48;;;;;;;0.47;0.40;;;13.00;54.80;;;;;;5074139;28;20490;-64
2022/04/16 12:12:15;;;;;;;1.10;0.30;;;13.20;55.60;;;;;;5074251;28;20084;-65
2022/04/16 12:14:49;;;;;;;3.92;0.50;;;13.30;54.80;;;;;;5074194;28;20056;-64
2022/04/16 12:17:24;;;;;;;0.35;0.30;;;13.20;52.70;;;;;;5074028;28;20021;-64
2022/04/16 12:20:11;;;;;;;0.85;0.30;;;13.20;54.00;;;;;;5073880;28;20024;-64
2022/04/16 12:22:59;;;;;;;1.30;0.30;;;13.10;53.70;;;;;;5056104;28;20044;-64
2022/04/16 12:25:25;;;;;;;1.45;0.55;;;13.00;54.30;;;;;;5073857;28;20024;-63
2022/04/16 12:27:53;;;;;;;2.35;0.40;;;13.10;54.80;;;;;;5073750;28;20027;-64
2022/04/16 12:30:24;;;;;;;0.47;0.45;;;13.00;55.00;;;;;;5073785;28;20024;-64
2022/04/16 12:33:00;;;;;;;0.85;0.40;;;13.00;55.00;;;;;;5055852;28;20032;-65
2022/04/16 12:35:27;;;;;;;1.48;0.30;;;13.00;57.10;;;;;;5073617;28;20024;-65
2022/04/16 12:37:54;;;;;;;1.23;0.40;;;13.10;56.10;;;;;;5073575;28;20016;-64
2022/04/16 12:40:21;;;;;;;0.45;0.32;;;13.00;57.00;;;;;;5056072;28;20017;-65
2022/04/16 12:42:47;;;;;;;1.02;0.30;;;13.10;58.00;;;;;;5073556;28;20070;-65
2022/04/16 12:45:13;;;;;;;0.95;0.52;;;13.10;57.20;;;;;;5073932;28;20020;-65
2022/04/16 12:47:38;;;;;;;0.63;0.40;;;13.10;57.30;;;;;;5056043;28;20022;-65
2022/04/16 12:50:05;;;;;;;6.82;1.10;;;13.10;58.10;;;;;;5055589;28;20078;-65
2022/04/16 12:52:30;;;;;;;3.03;0.73;;;13.00;58.20;;;;;;5055772;28;20107;-65
2022/04/16 12:54:56;;;;;;;1.80;0.60;;;12.90;59.10;;;;;;5056524;28;20097;-66
2022/04/16 12:57:21;;;;;;;0.40;0.40;;;13.10;57.80;;;;;;5073329;28;20478;-65
2022/04/16 12:59:47;;;;;;;4.57;0.63;;;13.20;58.10;;;;;;5056012;28;20024;-65
2022/04/16 13:02:13;;;;;;;0.52;0.40;;;13.20;57.40;;;;;;5073798;28;20379;-66
2022/04/16 13:04:38;;;;;;;0.52;0.50;;;13.20;57.30;;;;;;5073663;28;20020;-66
2022/04/16 13:07:04;;;;;;;1.95;0.57;;;13.30;59.30;;;;;;5055519;28;20035;-64
2022/04/16 13:09:29;;;;;;;0.88;0.52;;;13.30;58.70;;;;;;5073555;28;20028;-63
2022/04/16 13:11:56;;;;;;;0.50;0.32;;;13.40;58.50;;;;;;5073730;28;20032;-65
2022/04/16 13:14:22;;;;;;;0.65;0.65;;;13.40;58.30;;;;;;5055408;28;20027;-66
2022/04/16 13:16:48;;;;;;;0.60;0.32;;;13.50;58.60;;;;;;5055329;28;20035;-66